createdAt,value
2023-08-17T00:00:41.318Z,17.83
2023-08-17T00:04:53.819Z,17.72
2023-08-17T00:09:06.504Z,17.71
2023-08-17T00:13:18.986Z,17.69
2023-08-17T00:17:32.159Z,17.64
2023-08-17T00:21:46.725Z,17.55
2023-08-17T00:25:59.350Z,17.59
2023-08-17T00:30:12.604Z,17.65
2023-08-17T00:34:25.121Z,17.68
2023-08-17T00:38:37.578Z,17.56
2023-08-17T00:42:51.418Z,17.41
2023-08-17T00:47:04.062Z,17.40
2023-08-17T00:51:17.693Z,17.40
2023-08-17T00:55:30.481Z,17.57
2023-08-17T00:59:47.044Z,17.68
2023-08-17T01:04:04.588Z,17.70
2023-08-17T01:08:17.153Z,17.59
2023-08-17T01:13:13.639Z,17.54
2023-08-17T01:17:56.496Z,17.49
2023-08-17T01:22:13.278Z,17.47
2023-08-17T01:26:25.798Z,17.52
2023-08-17T01:31:05.030Z,17.70
2023-08-17T01:35:27.445Z,17.56
2023-08-17T01:39:46.593Z,17.58
2023-08-17T01:44:01.360Z,17.55
2023-08-17T01:48:13.968Z,17.31
2023-08-17T01:52:29.785Z,17.47
2023-08-17T01:56:42.311Z,17.26
2023-08-17T02:00:55.057Z,17.12
2023-08-17T02:05:07.947Z,17.05
2023-08-17T02:09:20.471Z,17.02
2023-08-17T02:13:33.033Z,17.02
2023-08-17T02:17:45.539Z,17.03
2023-08-17T02:21:58.128Z,17.06
2023-08-17T02:26:10.688Z,17.07
2023-08-17T02:30:23.168Z,17.10
2023-08-17T02:34:35.717Z,17.41
2023-08-17T02:38:48.231Z,17.27
2023-08-17T02:43:00.794Z,17.19
2023-08-17T02:47:13.358Z,17.16
2023-08-17T02:51:25.886Z,17.08
2023-08-17T02:55:38.429Z,17.17
2023-08-17T02:59:50.891Z,17.16
2023-08-17T03:04:03.415Z,17.15
2023-08-17T03:08:16.313Z,17.06
2023-08-17T03:12:28.794Z,16.95
2023-08-17T03:16:41.418Z,16.90
2023-08-17T03:20:53.971Z,16.85
2023-08-17T03:25:07.402Z,16.90
2023-08-17T03:29:20.001Z,16.89
2023-08-17T03:33:34.256Z,16.73
2023-08-17T03:37:47.314Z,16.67
2023-08-17T03:41:59.818Z,16.65
2023-08-17T03:46:12.401Z,16.55
2023-08-17T03:50:29.919Z,16.51
2023-08-17T03:54:42.432Z,16.41
2023-08-17T03:58:55.912Z,16.40
2023-08-17T04:03:09.168Z,16.39
2023-08-17T04:07:25.711Z,16.45
2023-08-17T04:11:38.838Z,16.47
2023-08-17T04:15:51.329Z,16.45
2023-08-17T04:20:03.838Z,16.45
2023-08-17T04:24:16.564Z,16.45
2023-08-17T04:28:29.104Z,16.52
2023-08-17T04:32:41.697Z,16.62
2023-08-17T04:36:54.175Z,16.73
2023-08-17T04:41:06.692Z,16.73
2023-08-17T04:45:19.327Z,16.83
2023-08-17T04:49:31.837Z,16.85
2023-08-17T04:53:44.365Z,16.88
2023-08-17T04:57:57.023Z,16.95
2023-08-17T05:02:09.664Z,17.04
2023-08-17T05:06:22.214Z,17.19
2023-08-17T05:10:34.746Z,17.23
2023-08-17T05:14:47.229Z,17.36
2023-08-17T05:19:01.350Z,17.45
2023-08-17T05:23:13.826Z,17.57
2023-08-17T05:27:26.560Z,17.75
2023-08-17T05:31:41.957Z,17.92
2023-08-17T05:35:57.723Z,18.04
2023-08-17T05:40:13.500Z,18.23
2023-08-17T05:44:26.015Z,18.47
2023-08-17T05:48:38.574Z,18.80
2023-08-17T05:52:51.083Z,18.85
2023-08-17T05:57:05.342Z,19.09
2023-08-17T06:01:17.888Z,19.19
2023-08-17T06:05:30.642Z,19.30
2023-08-17T06:09:43.208Z,19.45
2023-08-17T06:13:55.784Z,19.53
2023-08-17T06:18:08.388Z,19.86
2023-08-17T06:22:20.962Z,19.97
2023-08-17T06:26:33.493Z,20.16
2023-08-17T06:30:46.108Z,20.26
2023-08-17T06:34:59.203Z,20.55
2023-08-17T06:39:11.863Z,20.55
2023-08-17T06:43:24.822Z,20.80
2023-08-17T06:47:37.411Z,20.97
2023-08-17T06:51:50.113Z,20.98
2023-08-17T06:56:03.408Z,21.32
2023-08-17T07:00:16.397Z,21.47
2023-08-17T07:04:28.938Z,21.53
2023-08-17T07:08:41.502Z,21.76
2023-08-17T07:12:55.005Z,21.94
2023-08-17T07:17:07.547Z,22.30
2023-08-17T07:21:20.033Z,22.30
2023-08-17T07:25:32.648Z,22.40
2023-08-17T07:29:45.238Z,22.47
2023-08-17T07:33:57.760Z,22.63
2023-08-17T07:38:10.676Z,22.81
2023-08-17T07:42:24.833Z,23.09
2023-08-17T07:46:40.023Z,23.29
2023-08-17T07:50:54.526Z,23.63
2023-08-17T07:55:07.186Z,23.72
2023-08-17T07:59:19.644Z,23.92
2023-08-17T08:03:32.152Z,23.86
2023-08-17T08:07:44.676Z,24.22
2023-08-17T08:11:57.270Z,24.66
2023-08-17T08:16:09.861Z,24.52
2023-08-17T08:20:23.404Z,25.00
2023-08-17T08:24:38.330Z,25.95
2023-08-17T08:28:52.019Z,26.86
2023-08-17T08:33:04.796Z,27.67
2023-08-17T08:37:17.650Z,27.90
2023-08-17T08:41:31.727Z,28.08
2023-08-17T08:45:46.405Z,28.67
2023-08-17T08:50:04.513Z,28.43
2023-08-17T08:54:26.264Z,28.96
2023-08-17T08:58:40.981Z,29.19
2023-08-17T09:02:55.337Z,29.81
2023-08-17T09:07:10.364Z,29.50
2023-08-17T09:11:23.632Z,29.83
2023-08-17T09:15:37.057Z,29.77
2023-08-17T09:19:50.672Z,30.45
2023-08-17T09:24:03.809Z,30.43
2023-08-17T09:28:19.362Z,29.70
2023-08-17T09:32:33.904Z,30.01
2023-08-17T09:36:49.822Z,30.99
2023-08-17T09:41:02.968Z,30.95
2023-08-17T09:45:20.016Z,31.04
2023-08-17T09:49:36.633Z,31.75
2023-08-17T09:54:00.033Z,30.90
2023-08-17T09:58:17.414Z,31.71
2023-08-17T10:02:32.270Z,30.24
2023-08-17T10:06:45.701Z,29.49
2023-08-17T10:11:00.541Z,30.58
2023-08-17T10:15:20.163Z,30.94
2023-08-17T10:19:57.191Z,32.04
2023-08-17T10:24:10.934Z,32.72
2023-08-17T10:28:27.336Z,32.29
2023-08-17T10:32:46.908Z,32.27
2023-08-17T10:37:01.959Z,32.96
2023-08-17T10:41:18.610Z,32.06
2023-08-17T10:45:40.790Z,33.80
2023-08-17T10:49:58.462Z,34.51
2023-08-17T10:54:11.570Z,33.64
2023-08-17T10:58:24.792Z,32.69
2023-08-17T11:02:39.380Z,33.25
2023-08-17T11:07:05.734Z,33.22
2023-08-17T11:11:19.138Z,33.81
2023-08-17T11:15:44.347Z,34.60
2023-08-17T11:19:57.509Z,35.40
2023-08-17T11:24:12.905Z,34.53
2023-08-17T11:28:26.777Z,35.80
2023-08-17T11:32:41.294Z,34.85
2023-08-17T11:36:54.501Z,35.63
2023-08-17T11:41:17.968Z,35.33
2023-08-17T11:45:32.284Z,34.33
2023-08-17T11:49:47.211Z,33.84
2023-08-17T11:54:06.766Z,32.27
2023-08-17T11:58:19.850Z,32.47
2023-08-17T12:02:33.430Z,32.75
2023-08-17T12:06:47.705Z,31.84
2023-08-17T12:11:00.920Z,31.88
2023-08-17T12:15:14.096Z,33.27
2023-08-17T12:19:27.718Z,35.06
2023-08-17T12:23:41.986Z,33.53
2023-08-17T12:27:55.228Z,35.19
2023-08-17T12:32:09.884Z,35.11
2023-08-17T12:36:24.450Z,34.75
2023-08-17T12:40:37.615Z,35.43
2023-08-17T12:44:51.516Z,33.50
2023-08-17T12:49:04.917Z,35.23
2023-08-17T12:53:18.016Z,35.72
2023-08-17T12:57:31.186Z,35.94
2023-08-17T13:01:44.430Z,34.77
2023-08-17T13:05:57.916Z,34.99
2023-08-17T13:10:11.193Z,33.60
2023-08-17T13:14:26.992Z,35.12
2023-08-17T13:18:40.278Z,35.15
2023-08-17T13:22:53.466Z,35.65
2023-08-17T13:27:06.743Z,35.12
2023-08-17T13:31:24.901Z,36.74
2023-08-17T13:35:38.322Z,34.72
2023-08-17T13:39:51.381Z,35.04
2023-08-17T13:44:04.632Z,34.71
2023-08-17T13:48:17.900Z,35.78
2023-08-17T13:52:31.181Z,36.08
2023-08-17T13:56:44.367Z,35.95
2023-08-17T14:00:57.510Z,36.22
2023-08-17T14:05:10.779Z,36.80
2023-08-17T14:09:24.001Z,35.76
2023-08-17T14:13:38.219Z,33.27
2023-08-17T14:17:51.376Z,31.38
2023-08-17T14:22:05.070Z,30.61
2023-08-17T14:26:18.168Z,29.65
2023-08-17T14:30:30.666Z,29.09
2023-08-17T14:34:43.157Z,29.12
2023-08-17T14:38:56.351Z,29.64
2023-08-17T14:43:11.318Z,29.84
2023-08-17T14:47:24.953Z,30.59
2023-08-17T14:51:42.900Z,32.73
2023-08-17T14:55:56.141Z,34.24
2023-08-17T15:00:16.628Z,34.89
2023-08-17T15:04:30.107Z,35.31
2023-08-17T15:08:43.311Z,35.95
2023-08-17T15:12:56.494Z,36.42
2023-08-17T15:17:14.166Z,36.25
2023-08-17T15:21:27.374Z,36.45
2023-08-17T15:25:40.506Z,36.00
2023-08-17T15:29:53.626Z,34.97
2023-08-17T15:34:06.928Z,34.28
2023-08-17T15:38:19.964Z,32.64
2023-08-17T15:42:33.023Z,30.84
2023-08-17T15:46:46.693Z,30.30
2023-08-17T15:50:59.349Z,29.80
2023-08-17T15:55:13.195Z,29.21
2023-08-17T15:59:26.343Z,29.06
2023-08-17T16:03:39.705Z,28.71
2023-08-17T16:07:52.860Z,28.70
2023-08-17T16:12:06.360Z,28.68
2023-08-17T16:16:18.892Z,28.52
2023-08-17T16:20:35.309Z,28.50
2023-08-17T16:24:47.816Z,28.47
2023-08-17T16:29:01.009Z,28.39
2023-08-17T16:33:16.421Z,27.99
2023-08-17T16:37:29.117Z,27.59
2023-08-17T16:41:42.272Z,27.70
2023-08-17T16:45:54.805Z,26.10
2023-08-17T16:50:07.700Z,25.57
2023-08-17T16:54:20.258Z,25.02
2023-08-17T16:58:32.798Z,24.82
2023-08-17T17:02:45.346Z,24.52
2023-08-17T17:06:58.324Z,24.50
2023-08-17T17:11:10.983Z,24.27
2023-08-17T17:15:24.207Z,23.99
2023-08-17T17:19:36.951Z,23.69
2023-08-17T17:23:49.443Z,23.68
2023-08-17T17:28:01.988Z,23.41
2023-08-17T17:32:14.469Z,23.31
2023-08-17T17:36:26.983Z,23.08
2023-08-17T17:40:39.508Z,22.81
2023-08-17T17:44:52.060Z,22.63
2023-08-17T17:49:04.563Z,22.06
2023-08-17T17:53:17.094Z,22.02
2023-08-17T17:57:29.864Z,22.00
2023-08-17T18:01:42.909Z,21.74
2023-08-17T18:05:55.402Z,21.75
2023-08-17T18:10:09.518Z,21.68
2023-08-17T18:14:22.002Z,21.66
2023-08-17T18:18:38.604Z,21.62
2023-08-17T18:22:52.096Z,21.60
2023-08-17T18:27:04.701Z,21.70
2023-08-17T18:31:17.663Z,21.65
2023-08-17T18:35:30.203Z,21.60
2023-08-17T18:39:42.790Z,21.70
2023-08-17T18:43:56.105Z,21.60
2023-08-17T18:48:08.643Z,21.51
2023-08-17T18:52:21.170Z,21.63
2023-08-17T18:56:34.286Z,21.56
2023-08-17T19:00:46.834Z,21.26
2023-08-17T19:05:01.366Z,21.18
2023-08-17T19:09:14.033Z,21.13
2023-08-17T19:13:26.561Z,21.04
2023-08-17T19:17:40.006Z,20.98
2023-08-17T19:21:52.868Z,21.05
2023-08-17T19:26:06.973Z,21.14
2023-08-17T19:30:20.159Z,21.20
2023-08-17T19:34:32.660Z,20.88
2023-08-17T19:38:45.121Z,20.74
2023-08-17T19:42:59.928Z,20.79
2023-08-17T19:47:18.978Z,20.97
2023-08-17T19:51:32.077Z,20.87
2023-08-17T19:55:44.633Z,20.78
2023-08-17T19:59:57.551Z,20.60
2023-08-17T20:04:12.688Z,20.45
2023-08-17T20:08:25.624Z,20.62
2023-08-17T20:12:38.167Z,20.52
2023-08-17T20:16:50.808Z,20.26
2023-08-17T20:21:05.051Z,20.21
2023-08-17T20:25:17.712Z,20.28
2023-08-17T20:29:30.934Z,19.92
2023-08-17T20:33:44.071Z,20.00
2023-08-17T20:37:56.664Z,20.08
2023-08-17T20:42:10.536Z,20.24
2023-08-17T20:46:23.127Z,20.11
2023-08-17T20:50:44.053Z,19.90
2023-08-17T20:54:57.563Z,20.08
2023-08-17T20:59:10.133Z,20.06
2023-08-17T21:03:22.681Z,19.97
2023-08-17T21:07:35.834Z,20.11
2023-08-17T21:11:48.844Z,20.03
2023-08-17T21:16:09.221Z,20.03
2023-08-17T21:20:22.836Z,19.84
2023-08-17T21:24:35.377Z,19.68
2023-08-17T21:28:48.286Z,19.64
2023-08-17T21:33:00.821Z,19.35
2023-08-17T21:37:29.301Z,19.19
2023-08-17T21:41:41.984Z,19.33
2023-08-17T21:45:58.803Z,19.17
2023-08-17T21:50:11.955Z,19.35
2023-08-17T21:54:24.502Z,19.18
2023-08-17T21:58:37.004Z,18.89
2023-08-17T22:02:49.574Z,18.70
2023-08-17T22:07:04.226Z,18.58
2023-08-17T22:11:16.708Z,18.35
2023-08-17T22:15:29.313Z,18.26
2023-08-17T22:19:42.302Z,18.20
2023-08-17T22:23:54.803Z,18.19
2023-08-17T22:28:08.132Z,18.12
2023-08-17T22:32:20.729Z,18.12
2023-08-17T22:36:33.214Z,18.05
2023-08-17T22:40:45.788Z,18.05
2023-08-17T22:44:58.272Z,18.32
2023-08-17T22:49:10.750Z,18.56
2023-08-17T22:53:23.901Z,18.15
2023-08-17T22:57:36.892Z,18.30
2023-08-17T23:01:49.638Z,18.26
2023-08-17T23:06:03.618Z,18.20
2023-08-17T23:10:16.114Z,18.30
2023-08-17T23:14:28.608Z,18.40
2023-08-17T23:18:41.090Z,18.52
2023-08-17T23:22:54.062Z,18.53
2023-08-17T23:27:07.807Z,18.36
2023-08-17T23:31:20.360Z,18.20
2023-08-17T23:35:34.998Z,18.08
2023-08-17T23:39:47.507Z,18.13
2023-08-17T23:43:59.999Z,18.15
2023-08-17T23:48:13.531Z,18.02
2023-08-17T23:52:26.175Z,17.88
2023-08-17T23:56:39.102Z,17.90
